Time;durP1;ratioP1;P1;durP2;ratioP2;P2;SDS_P1;SDS_P2;PMS_P1;PMS_P2;Temp;Humidity;BMP_temperature;BMP_pressure;BME280_temperature;BME280_humidity;BME280_pressure;Samples;Min_cycle;Max_cycle;Signal;HPM_P1;HPM_P2
2022/01/20 04:00:45;;;;;;;22.88;3.85;;;3.80;99.90;;;;;;5854617;23;20180;-85
2022/01/20 04:03:12;;;;;;;25.02;3.50;;;3.90;99.90;;;;;;5012745;28;20042;-82
2022/01/20 04:05:56;;;;;;;24.92;3.38;;;3.90;99.90;;;;;;5012638;28;20489;-82
2022/01/20 04:08:34;;;;;;;22.48;3.72;;;3.90;99.90;;;;;;4996959;28;20429;-81
2022/01/20 04:11:03;;;;;;;26.25;3.60;;;3.90;99.90;;;;;;5005403;28;20046;-81
2022/01/20 04:13:31;;;;;;;22.85;3.45;;;3.90;99.90;;;;;;4992695;28;20050;-80
2022/01/20 04:16:02;;;;;;;23.90;3.97;;;3.80;99.90;;;;;;4993086;28;20039;-80
2022/01/20 04:18:29;;;;;;;19.52;3.70;;;3.80;99.90;;;;;;4992692;28;20054;-82
2022/01/20 04:20:55;;;;;;;27.77;3.50;;;3.80;99.90;;;;;;4976727;28;20070;-81
2022/01/20 04:23:21;;;;;;;19.98;3.63;;;3.80;99.90;;;;;;4993014;28;20434;-82
2022/01/20 04:25:47;;;;;;;20.15;3.00;;;3.80;99.90;;;;;;4992798;28;20034;-82
2022/01/20 04:28:13;;;;;;;22.40;3.97;;;3.80;99.90;;;;;;4992724;28;20076;-81
2022/01/20 04:30:39;;;;;;;22.20;3.58;;;3.80;99.90;;;;;;4992530;28;20077;-84
2022/01/20 04:33:04;;;;;;;19.92;2.67;;;3.80;99.90;;;;;;4992501;28;20089;-83
2022/01/20 04:35:31;;;;;;;23.92;3.50;;;3.70;99.90;;;;;;4994219;28;20489;-83
2022/01/20 04:37:58;;;;;;;28.88;3.72;;;3.70;99.90;;;;;;4992568;28;20051;-82
2022/01/20 04:40:23;;;;;;;20.30;2.90;;;3.70;99.90;;;;;;4992364;28;20110;-82
2022/01/20 04:42:50;;;;;;;24.92;3.05;;;3.70;99.90;;;;;;4976308;28;20058;-82
2022/01/20 04:45:23;;;;;;;14.90;1.80;;;3.70;99.90;;;;;;4976610;28;20398;-83
2022/01/20 04:48:00;;;;;;;16.67;2.17;;;3.80;99.90;;;;;;4992551;28;20494;-82
2022/01/20 04:58:39;;;;;;;12.88;2.60;;;3.60;99.90;;;;;;4996118;28;20478;-83
2022/01/20 05:01:06;;;;;;;12.65;2.00;;;3.50;99.90;;;;;;4995955;28;20045;-83
2022/01/20 05:03:32;;;;;;;14.40;2.15;;;3.40;99.90;;;;;;4995931;28;20077;-82
2022/01/20 05:05:58;;;;;;;16.75;2.72;;;3.20;99.90;;;;;;4996091;28;20127;-83
2022/01/20 05:08:25;;;;;;;13.50;1.70;;;3.00;99.90;;;;;;4995804;28;20042;-82
2022/01/20 05:10:52;;;;;;;22.75;2.60;;;2.90;99.90;;;;;;4995737;28;20046;-84
2022/01/20 05:13:32;;;;;;;14.23;1.70;;;2.80;99.90;;;;;;4979552;28;20050;-83
2022/01/20 05:15:57;;;;;;;10.45;2.25;;;2.80;99.90;;;;;;4995917;28;20418;-83
2022/01/20 05:18:23;;;;;;;11.15;1.48;;;2.80;99.90;;;;;;4995557;28;20043;-82
2022/01/20 05:20:48;;;;;;;11.38;1.60;;;2.80;99.90;;;;;;4995752;28;20043;-82
2022/01/20 05:23:14;;;;;;;15.20;2.22;;;2.70;99.90;;;;;;4995516;28;20046;-84
2022/01/20 05:25:40;;;;;;;11.25;2.53;;;2.70;99.90;;;;;;4995304;28;20046;-84
2022/01/20 05:28:05;;;;;;;16.00;3.10;;;2.70;99.90;;;;;;4995384;28;20145;-83
2022/01/20 05:30:31;;;;;;;10.38;1.88;;;2.60;99.90;;;;;;4995547;28;20498;-83
2022/01/20 05:32:58;;;;;;;17.10;2.95;;;2.60;99.90;;;;;;4978987;28;20046;-83
2022/01/20 05:35:23;;;;;;;21.95;3.05;;;2.60;99.90;;;;;;4979117;28;20057;-82
2022/01/20 05:37:49;;;;;;;12.60;2.05;;;2.60;99.90;;;;;;4995461;28;20030;-82
2022/01/20 05:40:15;;;;;;;18.77;2.80;;;2.50;99.90;;;;;;4995070;28;20046;-82
2022/01/20 05:42:40;;;;;;;14.80;2.22;;;2.50;99.90;;;;;;4995194;28;20038;-84
2022/01/20 05:45:07;;;;;;;12.10;2.10;;;2.50;99.90;;;;;;4995278;28;20045;-83
2022/01/20 05:47:37;;;;;;;16.05;2.05;;;2.50;99.90;;;;;;4979085;28;20050;-80
2022/01/20 05:50:03;;;;;;;18.05;2.53;;;2.50;99.90;;;;;;4994959;28;20053;-83
2022/01/20 05:52:28;;;;;;;13.82;2.42;;;2.50;99.90;;;;;;4994812;28;20494;-83
2022/01/20 05:54:54;;;;;;;26.33;3.33;;;2.50;99.90;;;;;;4994990;28;20049;-82
2022/01/20 05:57:20;;;;;;;18.45;2.95;;;2.50;99.90;;;;;;4994891;28;20042;-84
2022/01/20 05:59:45;;;;;;;16.55;3.42;;;2.50;99.90;;;;;;4996535;28;20034;-81
2022/01/20 06:02:28;;;;;;;20.50;2.40;;;2.50;99.90;;;;;;4994574;28;20042;-85
2022/01/20 06:04:54;;;;;;;20.02;2.72;;;2.60;99.90;;;;;;4994866;28;20060;-82
2022/01/20 06:07:21;;;;;;;14.93;2.50;;;2.60;99.90;;;;;;4995017;28;20039;-83
2022/01/20 06:09:47;;;;;;;16.02;3.03;;;2.50;99.90;;;;;;4994664;28;20056;-83
2022/01/20 06:12:12;;;;;;;22.13;2.90;;;2.50;99.90;;;;;;4994326;28;20469;-82
2022/01/20 06:14:38;;;;;;;15.95;2.60;;;2.50;99.90;;;;;;4978177;28;20042;-80
2022/01/20 06:17:04;;;;;;;15.65;2.35;;;2.40;99.90;;;;;;4994430;28;20077;-82
2022/01/20 06:19:30;;;;;;;22.42;3.85;;;2.40;99.90;;;;;;4994774;28;20034;-81
2022/01/20 06:21:55;;;;;;;16.50;2.55;;;2.40;99.90;;;;;;4994457;28;20441;-82
2022/01/20 06:24:21;;;;;;;10.90;1.85;;;2.50;99.90;;;;;;4994298;28;20046;-80
2022/01/20 06:26:46;;;;;;;11.07;1.48;;;2.50;99.90;;;;;;4978064;28;20085;-82
2022/01/20 06:29:12;;;;;;;19.27;3.38;;;2.40;99.90;;;;;;4994349;28;20042;-80
2022/01/20 06:31:37;;;;;;;18.05;2.67;;;2.40;99.90;;;;;;4993904;28;20042;-83
2022/01/20 06:34:03;;;;;;;18.65;2.92;;;2.30;99.90;;;;;;4994112;28;20042;-80
2022/01/20 06:36:29;;;;;;;13.75;2.00;;;2.30;99.90;;;;;;4977689;28;20450;-81
2022/01/20 06:38:54;;;;;;;16.50;2.05;;;2.30;99.90;;;;;;4994156;28;20034;-82
2022/01/20 06:41:20;;;;;;;22.30;2.47;;;2.30;99.90;;;;;;4993851;28;20042;-82
2022/01/20 06:43:45;;;;;;;17.63;2.53;;;2.30;99.90;;;;;;4977697;28;20038;-83
2022/01/20 06:46:11;;;;;;;16.75;3.03;;;2.40;99.90;;;;;;4994040;28;20043;-83
2022/01/20 06:48:37;;;;;;;20.92;3.25;;;2.40;99.90;;;;;;4994036;28;20046;-82
2022/01/20 06:51:02;;;;;;;21.10;2.70;;;2.40;99.90;;;;;;4993537;28;20077;-83
2022/01/20 06:53:28;;;;;;;19.80;2.92;;;2.40;99.90;;;;;;4993883;28;20521;-81
2022/01/20 06:55:53;;;;;;;24.48;5.03;;;2.40;99.90;;;;;;4993716;28;20042;-81
2022/01/20 06:58:22;;;;;;;23.15;3.20;;;2.40;99.90;;;;;;4977542;28;20038;-81
2022/01/20 07:00:48;;;;;;;22.83;2.92;;;2.40;99.90;;;;;;4993633;28;20406;-83
2022/01/20 07:03:14;;;;;;;14.80;3.03;;;2.40;99.90;;;;;;4993625;28;20042;-82
2022/01/20 07:05:39;;;;;;;19.83;2.33;;;2.30;99.90;;;;;;4977316;28;20069;-82
2022/01/20 07:08:05;;;;;;;19.45;2.55;;;2.40;99.90;;;;;;4993596;28;20057;-82
2022/01/20 07:10:30;;;;;;;21.77;2.65;;;2.40;99.90;;;;;;4977697;28;20046;-85
2022/01/20 07:12:56;;;;;;;15.85;2.85;;;2.40;99.90;;;;;;4993366;28;20050;-84
2022/01/20 07:15:22;;;;;;;15.57;2.45;;;2.40;99.90;;;;;;4992595;28;20038;-83
2022/01/20 07:17:47;;;;;;;15.30;2.33;;;2.40;99.90;;;;;;4993388;28;20376;-84
2022/01/20 07:20:15;;;;;;;17.60;2.53;;;2.40;99.90;;;;;;4993411;28;20208;-85
2022/01/20 07:22:40;;;;;;;13.43;2.78;;;2.50;99.90;;;;;;4993576;28;20426;-81
2022/01/20 07:25:09;;;;;;;11.52;2.50;;;2.60;99.90;;;;;;4993630;28;20038;-84
2022/01/20 07:27:35;;;;;;;16.55;2.38;;;2.70;99.90;;;;;;4977733;28;20054;-85
2022/01/20 07:30:01;;;;;;;22.55;2.70;;;2.80;99.90;;;;;;4993915;28;20110;-84
2022/01/20 07:32:26;;;;;;;22.80;3.65;;;2.80;99.90;;;;;;4992393;28;20045;-82
2022/01/20 07:34:52;;;;;;;10.88;2.53;;;2.80;99.90;;;;;;4993203;28;20466;-84
2022/01/20 07:37:18;;;;;;;17.65;2.55;;;2.90;99.90;;;;;;4992978;28;20165;-84
2022/01/20 07:39:43;;;;;;;14.48;2.05;;;2.90;99.90;;;;;;4992974;28;20084;-83
2022/01/20 07:42:09;;;;;;;17.67;3.60;;;2.90;99.90;;;;;;4993808;28;20049;-85
2022/01/20 07:44:35;;;;;;;16.65;2.80;;;2.90;99.90;;;;;;4993673;28;20046;-82
2022/01/20 07:47:00;;;;;;;10.75;2.72;;;2.90;99.90;;;;;;4993161;28;20597;-83
2022/01/20 07:49:27;;;;;;;12.48;2.20;;;2.90;99.90;;;;;;4992702;28;20085;-81
2022/01/20 07:51:53;;;;;;;19.13;2.63;;;2.90;99.90;;;;;;4976417;28;20074;-83
2022/01/20 07:54:20;;;;;;;12.95;2.35;;;2.80;99.90;;;;;;4992808;28;20038;-84
2022/01/20 07:56:48;;;;;;;15.02;2.72;;;2.80;99.90;;;;;;4977194;28;20080;-83
2022/01/20 07:59:14;;;;;;;14.15;2.05;;;2.70;99.90;;;;;;4993028;28;20046;-83
2022/01/20 08:01:40;;;;;;;14.75;2.33;;;2.70;99.90;;;;;;4993793;28;20409;-82
2022/01/20 08:04:05;;;;;;;18.23;2.50;;;2.80;99.90;;;;;;4992480;28;20081;-82
2022/01/20 08:06:31;;;;;;;19.35;3.58;;;2.80;99.90;;;;;;4992708;28;20414;-85
2022/01/20 08:08:57;;;;;;;16.80;2.50;;;2.80;99.90;;;;;;4992635;28;20113;-83
2022/01/20 08:11:22;;;;;;;15.18;3.17;;;2.80;99.90;;;;;;4992716;28;20046;-81
2022/01/20 08:13:48;;;;;;;12.98;1.83;;;2.70;99.90;;;;;;4992933;28;20042;-84
2022/01/20 08:16:14;;;;;;;17.73;2.63;;;2.70;99.90;;;;;;4992456;28;20038;-85
2022/01/20 08:18:40;;;;;;;14.75;2.92;;;2.70;99.90;;;;;;4993056;28;20394;-86
2022/01/20 08:21:05;;;;;;;13.23;2.50;;;2.70;99.90;;;;;;4992342;28;20047;-85
2022/01/20 08:23:31;;;;;;;15.65;2.40;;;2.60;99.90;;;;;;4992439;28;20046;-84
2022/01/20 08:25:57;;;;;;;20.85;3.25;;;2.60;99.90;;;;;;4992333;28;20038;-85
2022/01/20 08:28:23;;;;;;;11.80;2.28;;;2.70;99.90;;;;;;4997898;28;20494;-85
2022/01/20 08:30:51;;;;;;;19.35;3.15;;;2.70;99.90;;;;;;4996391;28;20038;-83
2022/01/20 08:33:17;;;;;;;25.50;5.07;;;2.70;99.90;;;;;;4996267;28;20049;-84
2022/01/20 08:35:43;;;;;;;22.23;2.45;;;2.70;99.90;;;;;;4997895;28;20034;-82
2022/01/20 08:38:09;;;;;;;20.50;2.90;;;2.70;99.90;;;;;;4996364;28;20057;-84
2022/01/20 08:40:36;;;;;;;21.17;3.15;;;2.70;99.90;;;;;;4996403;28;20430;-84
2022/01/20 08:43:02;;;;;;;17.60;3.83;;;2.80;99.90;;;;;;4997077;28;20370;-84
2022/01/20 08:45:32;;;;;;;24.17;3.65;;;2.80;99.90;;;;;;4995903;28;20048;-81
2022/01/20 08:47:59;;;;;;;24.20;3.72;;;2.90;99.90;;;;;;4996458;28;20061;-83
2022/01/20 08:50:28;;;;;;;29.08;3.85;;;3.10;99.90;;;;;;4996818;28;20042;-85
2022/01/20 08:52:55;;;;;;;26.58;3.30;;;3.20;99.90;;;;;;4997293;28;20078;-82
2022/01/20 08:55:21;;;;;;;16.35;2.38;;;3.30;99.90;;;;;;4996124;28;20042;-84
2022/01/20 08:57:47;;;;;;;17.13;2.30;;;3.50;99.90;;;;;;4996294;28;20100;-85
2022/01/20 09:00:16;;;;;;;18.35;3.03;;;3.70;99.90;;;;;;4997332;28;20038;-85
2022/01/20 09:02:42;;;;;;;24.15;3.53;;;4.00;99.90;;;;;;4997250;28;20410;-82
2022/01/20 09:05:08;;;;;;;19.55;2.60;;;4.30;99.90;;;;;;4995488;28;20053;-83
2022/01/20 09:07:34;;;;;;;13.75;2.08;;;4.60;99.90;;;;;;4996942;28;20106;-82
2022/01/20 09:10:04;;;;;;;22.05;2.83;;;4.70;99.90;;;;;;4995690;28;20419;-86
2022/01/20 09:17:43;;;;;;;17.10;2.53;;;5.00;99.90;;;;;;4995915;28;20038;-83
2022/01/20 09:20:09;;;;;;;20.67;2.90;;;5.00;99.90;;;;;;4979367;28;20133;-82
2022/01/20 09:22:35;;;;;;;16.40;2.38;;;4.70;99.90;;;;;;4995455;28;20153;-85
2022/01/20 09:25:01;;;;;;;21.95;2.92;;;4.50;99.90;;;;;;4995336;28;20078;-85
2022/01/20 09:27:28;;;;;;;11.32;2.08;;;4.40;99.90;;;;;;4997320;28;20128;-83
2022/01/20 09:29:54;;;;;;;19.60;2.53;;;4.20;99.90;;;;;;4982189;28;20426;-84
2022/01/20 09:32:24;;;;;;;16.15;2.65;;;4.10;99.90;;;;;;5002450;28;20051;-83
2022/01/20 09:35:26;;;;;;;13.68;2.50;;;3.90;99.90;;;;;;5009750;28;20066;-83
2022/01/20 09:37:52;;;;;;;19.77;2.92;;;3.70;99.90;;;;;;5016893;28;20046;-82
2022/01/20 09:40:17;;;;;;;20.95;3.08;;;3.70;99.90;;;;;;4997855;28;20076;-86
2022/01/20 09:42:43;;;;;;;14.15;2.28;;;3.60;99.90;;;;;;4997899;28;20044;-84
2022/01/20 09:45:09;;;;;;;14.20;2.20;;;3.60;99.90;;;;;;4995681;28;20042;-84
2022/01/20 09:47:36;;;;;;;20.80;3.45;;;3.60;99.90;;;;;;4995355;28;20042;-84
2022/01/20 09:50:04;;;;;;;14.38;2.30;;;3.60;99.90;;;;;;4997217;28;20041;-85
2022/01/20 09:52:30;;;;;;;20.13;2.65;;;3.70;99.90;;;;;;4995926;28;20100;-85
2022/01/20 09:54:55;;;;;;;20.30;2.42;;;3.80;99.90;;;;;;4996133;28;20121;-85
2022/01/20 09:57:21;;;;;;;17.08;2.90;;;3.90;99.90;;;;;;4996343;28;20034;-83
2022/01/20 09:59:48;;;;;;;18.05;2.25;;;4.20;99.90;;;;;;4978482;28;20042;-84
2022/01/20 10:02:18;;;;;;;17.40;3.03;;;4.30;99.90;;;;;;4994940;28;20057;-85
2022/01/20 10:04:45;;;;;;;17.05;2.65;;;4.40;99.90;;;;;;4995992;28;20046;-85
2022/01/20 10:07:13;;;;;;;18.77;3.13;;;4.60;99.90;;;;;;4994868;28;20457;-84
2022/01/20 10:09:45;;;;;;;17.67;3.17;;;4.70;99.90;;;;;;4994745;28;20108;-83
2022/01/20 10:12:14;;;;;;;13.77;2.80;;;4.80;99.90;;;;;;4994557;28;20073;-84
2022/01/20 10:14:48;;;;;;;11.35;2.10;;;4.90;99.90;;;;;;4994715;28;20113;-86
2022/01/20 10:17:15;;;;;;;16.65;3.28;;;4.90;99.90;;;;;;4978653;28;20166;-84
2022/01/20 10:19:41;;;;;;;13.95;2.25;;;5.00;99.90;;;;;;4994517;28;20038;-84
2022/01/20 10:22:15;;;;;;;11.25;2.00;;;5.00;99.90;;;;;;4995873;28;20372;-84
2022/01/20 10:24:42;;;;;;;11.02;2.38;;;5.10;99.90;;;;;;4978312;28;20054;-85
2022/01/20 10:27:10;;;;;;;18.92;3.08;;;5.10;99.90;;;;;;4994209;28;20482;-85
2022/01/20 10:29:36;;;;;;;9.07;2.53;;;5.20;99.90;;;;;;4994230;28;20129;-84
2022/01/20 10:32:01;;;;;;;13.75;2.42;;;5.20;99.90;;;;;;4994261;28;20117;-86
2022/01/20 10:34:35;;;;;;;16.23;2.42;;;5.20;99.90;;;;;;4995570;28;20076;-84
2022/01/20 10:37:09;;;;;;;11.88;2.03;;;5.20;99.90;;;;;;4995119;28;20058;-82
2022/01/20 10:39:44;;;;;;;21.08;3.50;;;5.20;99.90;;;;;;4994428;28;20042;-85
2022/01/20 10:42:11;;;;;;;13.10;2.42;;;5.10;99.90;;;;;;4996012;28;20044;-85
2022/01/20 10:44:49;;;;;;;12.82;3.10;;;5.00;99.90;;;;;;4978311;28;20050;-84
2022/01/20 10:47:17;;;;;;;20.35;2.88;;;4.90;99.90;;;;;;4978076;28;20386;-84
2022/01/20 10:49:45;;;;;;;18.27;2.72;;;4.90;99.90;;;;;;4993537;28;20103;-84
2022/01/20 10:52:13;;;;;;;21.88;2.97;;;4.70;99.90;;;;;;4993121;28;20054;-86
2022/01/20 10:54:41;;;;;;;9.77;1.63;;;4.70;99.90;;;;;;4994880;28;20046;-84
2022/01/20 10:57:08;;;;;;;16.48;2.17;;;4.70;99.90;;;;;;4994458;28;20049;-85
2022/01/20 10:59:45;;;;;;;19.67;3.63;;;4.60;99.90;;;;;;4977359;28;20046;-84
2022/01/20 11:02:11;;;;;;;16.92;3.42;;;4.50;99.90;;;;;;4993514;28;20092;-81
2022/01/20 11:04:38;;;;;;;16.45;3.45;;;4.30;99.90;;;;;;4995040;28;20038;-84
2022/01/20 11:07:07;;;;;;;16.70;3.10;;;4.20;99.90;;;;;;4994896;28;20056;-83
2022/01/20 11:09:37;;;;;;;16.70;4.15;;;4.20;99.90;;;;;;4993629;28;20042;-81
2022/01/20 11:12:04;;;;;;;17.42;2.78;;;4.10;99.90;;;;;;4994321;28;20034;-84
2022/01/20 11:14:31;;;;;;;12.50;2.80;;;4.10;99.90;;;;;;4995040;28;20049;-79
2022/01/20 11:16:58;;;;;;;12.98;2.30;;;4.00;99.90;;;;;;4994635;28;20038;-78
2022/01/20 11:19:25;;;;;;;12.32;2.30;;;3.90;99.90;;;;;;4993084;28;20125;-83
2022/01/20 11:21:52;;;;;;;16.40;2.92;;;3.90;99.90;;;;;;4976919;28;20537;-83
2022/01/20 11:24:24;;;;;;;17.95;2.92;;;3.90;99.90;;;;;;4993269;28;20058;-81
2022/01/20 11:26:56;;;;;;;12.45;1.83;;;3.90;99.90;;;;;;4976863;28;20050;-88
2022/01/20 11:29:25;;;;;;;9.05;1.50;;;4.00;99.90;;;;;;4992884;28;20046;-85
2022/01/20 11:31:52;;;;;;;16.27;2.15;;;3.90;99.90;;;;;;4992750;28;20057;-84
2022/01/20 11:34:20;;;;;;;15.25;2.45;;;4.20;99.90;;;;;;4976812;28;20046;-83
2022/01/20 11:36:47;;;;;;;12.18;1.80;;;4.60;99.90;;;;;;4993026;28;20050;-83
2022/01/20 11:39:14;;;;;;;16.70;2.70;;;5.00;99.90;;;;;;4992730;28;20077;-85
2022/01/20 11:41:49;;;;;;;19.08;2.85;;;5.10;99.90;;;;;;4976712;28;20050;-83
2022/01/20 11:44:26;;;;;;;17.08;3.58;;;5.20;99.90;;;;;;4975921;28;20487;-85
2022/01/20 11:46:53;;;;;;;19.35;2.90;;;5.40;99.90;;;;;;4957355;28;20077;-84
2022/01/20 11:49:21;;;;;;;6.22;1.50;;;5.40;99.90;;;;;;4957182;28;20058;-84
2022/01/20 11:51:49;;;;;;;12.45;1.95;;;5.00;99.90;;;;;;4972910;28;20125;-81
2022/01/20 11:54:26;;;;;;;11.25;1.80;;;4.30;99.90;;;;;;4973291;28;20069;-84
2022/01/20 11:57:05;;;;;;;10.98;1.70;;;3.80;99.90;;;;;;4973616;28;20054;-85
2022/01/20 11:59:38;;;;;;;10.02;1.90;;;3.50;99.90;;;;;;4973333;28;20034;-84
2022/01/20 12:02:04;;;;;;;9.88;2.10;;;3.30;99.90;;;;;;4972581;28;20133;-83
2022/01/20 12:04:34;;;;;;;10.65;2.03;;;3.30;99.90;;;;;;4974140;28;20125;-84
2022/01/20 12:07:01;;;;;;;17.08;2.78;;;3.40;99.90;;;;;;4973696;28;20380;-85
2022/01/20 12:09:38;;;;;;;18.02;3.25;;;3.60;99.90;;;;;;4973524;28;20058;-85
2022/01/20 12:12:07;;;;;;;27.52;4.32;;;3.80;99.90;;;;;;4963761;28;20089;-85
2022/01/20 12:14:36;;;;;;;15.85;2.33;;;4.00;99.90;;;;;;4992874;28;20538;-86
2022/01/20 12:17:11;;;;;;;14.82;2.10;;;4.20;99.90;;;;;;4984662;28;20045;-85
2022/01/20 12:19:38;;;;;;;20.10;3.47;;;4.40;99.90;;;;;;4992443;28;20510;-86
2022/01/20 12:22:05;;;;;;;18.20;3.33;;;4.60;99.90;;;;;;4992714;28;20092;-87
2022/01/20 12:24:35;;;;;;;15.73;2.95;;;4.80;99.90;;;;;;4992811;28;20395;-86
2022/01/20 12:27:02;;;;;;;27.20;3.85;;;5.00;99.90;;;;;;4992484;28;20100;-84
2022/01/20 12:29:36;;;;;;;12.32;2.35;;;5.20;99.90;;;;;;4992794;28;20046;-86
2022/01/20 12:32:09;;;;;;;19.58;3.47;;;5.30;99.90;;;;;;4992341;28;20161;-84
2022/01/20 12:34:35;;;;;;;21.88;2.92;;;5.40;99.90;;;;;;4992138;28;20050;-86
2022/01/20 12:37:00;;;;;;;20.48;3.88;;;5.40;99.90;;;;;;4993872;28;20109;-85
2022/01/20 12:39:32;;;;;;;18.50;2.90;;;5.30;99.90;;;;;;4992395;28;20097;-86
2022/01/20 12:42:05;;;;;;;17.38;2.47;;;5.30;99.90;;;;;;4979305;28;20039;-87
2022/01/20 12:45:01;;;;;;;17.17;2.45;;;5.20;99.90;;;;;;4986401;28;20038;-85
2022/01/20 12:47:29;;;;;;;16.65;2.67;;;5.20;99.90;;;;;;4992412;28;20561;-85
2022/01/20 12:49:56;;;;;;;21.55;2.95;;;5.20;99.90;;;;;;4992171;28;20089;-86
2022/01/20 12:52:21;;;;;;;17.20;3.17;;;5.10;99.90;;;;;;4992105;28;20046;-86
2022/01/20 12:54:48;;;;;;;13.35;2.33;;;5.00;99.90;;;;;;4992299;28;20483;-85
2022/01/20 12:57:14;;;;;;;19.35;2.80;;;4.80;99.90;;;;;;4992539;28;20487;-83
2022/01/20 12:59:42;;;;;;;15.50;2.67;;;4.70;99.90;;;;;;4975865;28;20065;-84
2022/01/20 13:02:27;;;;;;;16.92;2.88;;;4.60;99.90;;;;;;4991821;28;20042;-82
2022/01/20 13:04:59;;;;;;;15.13;2.17;;;4.50;99.90;;;;;;4992315;28;20510;-85
2022/01/20 13:07:25;;;;;;;20.95;3.58;;;4.40;99.90;;;;;;4975796;28;20048;-85
2022/01/20 13:10:01;;;;;;;11.52;2.35;;;4.30;99.90;;;;;;4993956;28;20042;-86
2022/01/20 13:12:39;;;;;;;14.65;2.45;;;4.30;99.90;;;;;;4991683;28;20478;-87
2022/01/20 13:15:17;;;;;;;14.13;2.88;;;4.30;99.90;;;;;;4994678;28;20049;-86
2022/01/20 13:17:46;;;;;;;14.40;2.88;;;4.40;99.90;;;;;;4979365;28;20096;-85
2022/01/20 13:20:16;;;;;;;14.43;2.47;;;4.50;99.90;;;;;;4995348;28;20092;-85
2022/01/20 13:22:56;;;;;;;12.30;2.13;;;4.60;99.90;;;;;;4995738;28;20121;-87
2022/01/20 13:25:27;;;;;;;13.18;2.25;;;4.80;99.90;;;;;;4995319;28;20152;-84
2022/01/20 13:27:59;;;;;;;14.48;2.70;;;4.80;99.90;;;;;;4995146;28;20081;-85
2022/01/20 13:30:27;;;;;;;15.43;1.98;;;5.00;99.90;;;;;;4978983;28;20050;-86
2022/01/20 13:32:53;;;;;;;10.07;2.03;;;4.80;99.90;;;;;;4995098;28;20510;-86
2022/01/20 13:35:19;;;;;;;15.18;2.78;;;4.70;99.90;;;;;;4995419;28;20039;-87
2022/01/20 13:37:47;;;;;;;17.10;2.58;;;4.70;99.90;;;;;;4995596;28;20026;-86
2022/01/20 13:40:19;;;;;;;13.48;2.05;;;4.60;99.90;;;;;;4978971;28;20038;-87
2022/01/20 13:45:00;;;;;;;20.00;3.33;;;4.60;99.90;;;;;;4996491;28;20045;-85
2022/01/20 13:45:36;;;;;;;;;;;4.70;99.90;;;;;;4996616;28;20386;-87
2022/01/20 13:48:02;;;;;;;16.00;2.75;;;4.70;99.90;;;;;;4998682;28;20329;-84
2022/01/20 13:50:37;;;;;;;16.45;2.70;;;4.60;99.90;;;;;;4999533;28;20046;-85
2022/01/20 13:53:13;;;;;;;13.95;2.20;;;4.60;99.90;;;;;;5011256;28;20065;-79
2022/01/20 13:55:41;;;;;;;7.80;1.50;;;4.60;99.90;;;;;;5014208;28;20077;-82
2022/01/20 13:58:07;;;;;;;10.45;1.20;;;4.40;99.90;;;;;;4986477;28;20173;-85
2022/01/20 14:00:35;;;;;;;6.13;1.00;;;4.20;99.90;;;;;;4982815;28;20513;-85
2022/01/20 14:03:06;;;;;;;7.38;1.00;;;4.10;99.90;;;;;;4996603;28;20479;-85
2022/01/20 14:05:33;;;;;;;7.07;1.02;;;3.90;99.90;;;;;;4979034;28;20038;-86
2022/01/20 14:08:03;;;;;;;6.05;0.95;;;3.80;99.90;;;;;;4994880;28;20038;-87
2022/01/20 14:10:29;;;;;;;7.70;1.00;;;3.70;99.90;;;;;;4996067;28;20045;-85
2022/01/20 14:12:56;;;;;;;7.70;1.10;;;3.70;99.90;;;;;;4978176;28;20046;-85
2022/01/20 14:15:25;;;;;;;9.82;2.03;;;3.90;99.90;;;;;;4994709;28;20386;-84
2022/01/20 14:17:53;;;;;;;9.40;1.15;;;4.20;99.90;;;;;;4995881;28;20038;-85
2022/01/20 14:20:23;;;;;;;9.65;1.30;;;4.60;99.90;;;;;;4994259;28;20117;-85
2022/01/20 14:22:49;;;;;;;8.65;1.02;;;5.10;99.90;;;;;;4978149;28;20080;-84
2022/01/20 14:25:15;;;;;;;10.32;1.42;;;5.40;99.90;;;;;;4994281;28;20108;-85
2022/01/20 14:27:41;;;;;;;8.80;1.55;;;5.10;99.90;;;;;;4978288;28;20475;-85
2022/01/20 14:30:11;;;;;;;11.02;1.75;;;4.70;99.90;;;;;;4995687;28;20093;-85
2022/01/20 14:32:38;;;;;;;8.48;1.35;;;4.40;99.90;;;;;;4994015;28;20049;-85
2022/01/20 14:35:04;;;;;;;9.98;1.42;;;4.20;99.90;;;;;;4977777;28;20093;-84
2022/01/20 14:37:37;;;;;;;8.20;1.17;;;4.20;99.90;;;;;;4994019;28;20049;-84
2022/01/20 14:40:05;;;;;;;10.35;1.30;;;4.10;99.90;;;;;;4994195;28;20375;-85
2022/01/20 14:42:31;;;;;;;10.63;1.63;;;4.00;99.90;;;;;;4977541;28;20129;-81
2022/01/20 14:44:56;;;;;;;8.63;1.50;;;3.80;99.90;;;;;;4993506;28;20080;-83
2022/01/20 14:47:22;;;;;;;6.70;1.65;;;3.60;99.90;;;;;;4995355;28;20096;-83
2022/01/20 14:49:48;;;;;;;12.50;2.17;;;3.50;99.90;;;;;;4993586;28;20455;-85
2022/01/20 14:52:13;;;;;;;10.77;1.85;;;3.40;99.90;;;;;;4993165;28;20085;-85
2022/01/20 14:54:39;;;;;;;13.50;1.65;;;3.40;99.90;;;;;;4993778;28;20038;-85
2022/01/20 14:57:05;;;;;;;12.88;2.13;;;3.40;99.90;;;;;;4993693;28;20042;-84
2022/01/20 14:59:32;;;;;;;13.05;3.10;;;3.50;99.90;;;;;;4993867;28;20030;-84
2022/01/20 15:01:58;;;;;;;17.40;2.38;;;3.40;99.90;;;;;;4977232;28;20057;-84
2022/01/20 15:04:24;;;;;;;17.83;2.15;;;3.30;99.90;;;;;;4993799;28;20050;-84
2022/01/20 15:06:49;;;;;;;18.17;2.55;;;3.30;99.90;;;;;;4993258;28;20157;-83
2022/01/20 15:09:15;;;;;;;10.35;2.05;;;3.30;99.90;;;;;;4993291;28;20041;-86
2022/01/20 15:11:40;;;;;;;10.48;2.00;;;3.30;99.90;;;;;;4993065;28;20454;-85
2022/01/20 15:14:07;;;;;;;22.48;2.80;;;3.30;99.90;;;;;;4993326;28;20042;-86
2022/01/20 15:16:32;;;;;;;18.58;3.45;;;3.30;99.90;;;;;;4993499;28;20034;-84
2022/01/20 15:18:59;;;;;;;20.58;3.78;;;3.30;99.90;;;;;;4993448;28;20540;-83
2022/01/20 15:21:25;;;;;;;18.02;2.78;;;3.30;99.90;;;;;;4994249;28;20058;-84
2022/01/20 15:23:51;;;;;;;16.30;2.72;;;3.30;99.90;;;;;;4993354;28;20045;-84
2022/01/20 15:26:18;;;;;;;17.20;2.33;;;3.30;99.90;;;;;;4977120;28;20069;-85
2022/01/20 15:28:47;;;;;;;17.40;2.92;;;3.30;99.90;;;;;;4993498;28;20038;-81
2022/01/20 15:31:14;;;;;;;24.25;3.92;;;3.30;99.90;;;;;;4992765;28;20533;-85
2022/01/20 15:33:43;;;;;;;10.85;1.77;;;3.40;99.90;;;;;;4993005;28;20057;-85
2022/01/20 15:36:10;;;;;;;12.45;2.08;;;3.40;99.90;;;;;;4992754;28;20042;-86
2022/01/20 15:38:36;;;;;;;13.52;2.78;;;3.40;99.90;;;;;;4993350;28;20049;-84
2022/01/20 15:41:02;;;;;;;13.70;2.03;;;3.40;99.90;;;;;;4994264;28;20366;-86
2022/01/20 15:43:29;;;;;;;18.15;2.08;;;3.50;99.90;;;;;;4994550;28;20129;-87
2022/01/20 15:45:55;;;;;;;13.07;1.88;;;3.50;99.90;;;;;;4992988;28;20081;-83
2022/01/20 15:48:21;;;;;;;13.68;2.15;;;3.50;99.90;;;;;;4994688;28;20034;-84
2022/01/20 15:50:46;;;;;;;13.98;2.08;;;3.40;99.90;;;;;;4993182;28;20070;-86
2022/01/20 15:53:12;;;;;;;13.48;2.08;;;3.40;99.90;;;;;;4992856;28;20042;-84
2022/01/20 15:55:38;;;;;;;18.85;2.22;;;3.30;99.90;;;;;;4993100;28;20108;-87
2022/01/20 15:58:05;;;;;;;11.05;1.88;;;3.30;99.90;;;;;;4986618;28;20034;-86
2022/01/20 16:00:32;;;;;;;17.65;2.58;;;3.20;99.90;;;;;;4986676;28;20130;-86
2022/01/20 16:02:58;;;;;;;12.43;1.73;;;3.20;99.90;;;;;;4992969;28;20464;-87
2022/01/20 16:05:24;;;;;;;10.90;2.08;;;3.20;99.90;;;;;;4993201;28;20046;-84
2022/01/20 16:07:51;;;;;;;11.02;2.00;;;3.20;99.90;;;;;;4992853;28;20051;-86
2022/01/20 16:10:18;;;;;;;8.95;1.50;;;3.20;99.90;;;;;;4993984;28;20049;-87
2022/01/20 16:12:45;;;;;;;11.65;3.05;;;3.30;99.90;;;;;;4992287;28;20046;-85
2022/01/20 16:15:11;;;;;;;13.48;2.38;;;3.40;99.90;;;;;;4992428;28;20573;-86
2022/01/20 16:17:37;;;;;;;10.18;2.10;;;3.40;99.90;;;;;;4992717;28;20042;-88
2022/01/20 16:20:04;;;;;;;13.45;3.25;;;3.30;99.90;;;;;;4994301;28;20043;-84
2022/01/20 16:22:30;;;;;;;10.50;2.15;;;3.30;99.90;;;;;;4976371;28;20053;-85
2022/01/20 16:24:56;;;;;;;11.05;1.80;;;3.20;99.90;;;;;;4994063;28;20038;-85
2022/01/20 16:27:24;;;;;;;10.82;2.08;;;3.20;99.90;;;;;;4992488;28;20100;-86
2022/01/20 16:29:50;;;;;;;14.02;1.73;;;3.10;99.90;;;;;;4990832;28;20038;-86
2022/01/20 16:32:15;;;;;;;18.15;2.40;;;3.00;99.90;;;;;;4975963;28;20062;-84
2022/01/20 16:34:41;;;;;;;10.77;1.75;;;2.90;99.90;;;;;;4992461;28;20438;-86
2022/01/20 16:37:10;;;;;;;9.90;1.90;;;2.90;99.90;;;;;;4976352;28;20447;-85
2022/01/20 16:39:35;;;;;;;14.95;2.80;;;2.80;99.90;;;;;;4976640;28;20482;-85
2022/01/20 16:42:01;;;;;;;15.20;2.40;;;2.80;99.90;;;;;;4976005;28;20052;-87
2022/01/20 16:44:27;;;;;;;16.65;3.17;;;2.80;99.90;;;;;;4992789;28;20118;-85
2022/01/20 16:46:54;;;;;;;15.25;2.92;;;2.80;99.90;;;;;;4976256;28;20487;-86
2022/01/20 16:49:20;;;;;;;13.73;2.42;;;2.70;99.90;;;;;;4979902;28;20398;-84
2022/01/20 16:51:45;;;;;;;19.75;2.40;;;2.70;99.90;;;;;;4995915;28;20038;-86
2022/01/20 16:54:12;;;;;;;22.27;2.72;;;2.60;99.90;;;;;;4980082;28;20046;-84
2022/01/20 16:56:38;;;;;;;15.52;2.42;;;2.60;99.90;;;;;;4996187;28;20038;-85
2022/01/20 16:59:04;;;;;;;18.33;2.65;;;2.50;99.90;;;;;;4996090;28;20069;-85
2022/01/20 17:01:30;;;;;;;14.95;2.85;;;2.50;99.90;;;;;;4996138;28;20444;-85
2022/01/20 17:03:56;;;;;;;14.35;2.95;;;2.50;99.90;;;;;;4996266;28;20048;-85